sensor_id;sensor_type;location;lat;lon;timestamp;pressure;altitude;pressure_sealevel;temperature;humidity
11114;BME280;5610;52.154;9.198;2023-12-20T00:02:38;100327.41;;;8.57;100.00
11114;BME280;5610;52.154;9.198;2023-12-20T00:05:23;100336.69;;;8.49;100.00
11114;BME280;5610;52.154;9.198;2023-12-20T00:08:08;100334.97;;;8.48;100.00
11114;BME280;5610;52.154;9.198;2023-12-20T00:10:53;100340.03;;;8.53;100.00
11114;BME280;5610;52.154;9.198;2023-12-20T00:13:38;100336.34;;;8.56;100.00
11114;BME280;5610;52.154;9.198;2023-12-20T00:16:23;100332.78;;;8.41;100.00
11114;BME280;5610;52.154;9.198;2023-12-20T00:19:09;100333.03;;;8.36;100.00
11114;BME280;5610;52.154;9.198;2023-12-20T00:21:55;100354.75;;;8.27;100.00
11114;BME280;5610;52.154;9.198;2023-12-20T00:24:40;100351.84;;;8.16;100.00
11114;BME280;5610;52.154;9.198;2023-12-20T00:27:25;100361.94;;;8.09;100.00
11114;BME280;5610;52.154;9.198;2023-12-20T00:30:10;100357.16;;;8.16;100.00
11114;BME280;5610;52.154;9.198;2023-12-20T00:32:56;100352.56;;;8.04;100.00
11114;BME280;5610;52.154;9.198;2023-12-20T00:35:42;100355.53;;;8.13;100.00
11114;BME280;5610;52.154;9.198;2023-12-20T00:38:28;100366.59;;;8.06;100.00
11114;BME280;5610;52.154;9.198;2023-12-20T00:41:13;100365.13;;;8.00;100.00
11114;BME280;5610;52.154;9.198;2023-12-20T00:43:58;100368.81;;;7.97;100.00
11114;BME280;5610;52.154;9.198;2023-12-20T00:46:44;100372.22;;;7.99;100.00
11114;BME280;5610;52.154;9.198;2023-12-20T00:49:29;100373.78;;;8.04;100.00
11114;BME280;5610;52.154;9.198;2023-12-20T00:52:15;100370.84;;;8.08;100.00
11114;BME280;5610;52.154;9.198;2023-12-20T00:55:01;100368.72;;;7.99;100.00
11114;BME280;5610;52.154;9.198;2023-12-20T00:57:47;100367.78;;;8.00;100.00
11114;BME280;5610;52.154;9.198;2023-12-20T01:00:32;100366.22;;;7.96;100.00
11114;BME280;5610;52.154;9.198;2023-12-20T01:03:17;100375.44;;;7.89;100.00
11114;BME280;5610;52.154;9.198;2023-12-20T01:06:02;100367.16;;;7.95;100.00
11114;BME280;5610;52.154;9.198;2023-12-20T01:08:50;100373.25;;;7.97;100.00
11114;BME280;5610;52.154;9.198;2023-12-20T01:11:35;100364.06;;;7.87;100.00
11114;BME280;5610;52.154;9.198;2023-12-20T01:14:20;100368.53;;;7.86;100.00
11114;BME280;5610;52.154;9.198;2023-12-20T01:17:05;100372.78;;;7.89;100.00
11114;BME280;5610;52.154;9.198;2023-12-20T01:19:51;100361.69;;;7.82;100.00
11114;BME280;5610;52.154;9.198;2023-12-20T01:22:36;100362.59;;;7.81;100.00
11114;BME280;5610;52.154;9.198;2023-12-20T01:25:22;100362.03;;;7.92;100.00
11114;BME280;5610;52.154;9.198;2023-12-20T01:28:07;100368.50;;;7.70;100.00
11114;BME280;5610;52.154;9.198;2023-12-20T01:30:53;100379.22;;;7.69;100.00
11114;BME280;5610;52.154;9.198;2023-12-20T01:33:38;100388.03;;;7.69;100.00
11114;BME280;5610;52.154;9.198;2023-12-20T01:36:23;100394.19;;;7.70;100.00
11114;BME280;5610;52.154;9.198;2023-12-20T01:39:08;100388.06;;;7.68;100.00
11114;BME280;5610;52.154;9.198;2023-12-20T01:41:55;100381.22;;;7.48;100.00
11114;BME280;5610;52.154;9.198;2023-12-20T01:44:40;100382.75;;;7.52;100.00
11114;BME280;5610;52.154;9.198;2023-12-20T01:47:25;100380.94;;;7.53;100.00
11114;BME280;5610;52.154;9.198;2023-12-20T01:50:11;100388.25;;;7.65;100.00
11114;BME280;5610;52.154;9.198;2023-12-20T01:52:57;100380.66;;;7.75;100.00
11114;BME280;5610;52.154;9.198;2023-12-20T01:55:44;100395.13;;;7.69;100.00
11114;BME280;5610;52.154;9.198;2023-12-20T01:58:31;100395.56;;;7.77;100.00
11114;BME280;5610;52.154;9.198;2023-12-20T02:01:17;100388.38;;;7.79;100.00
11114;BME280;5610;52.154;9.198;2023-12-20T02:04:03;100388.53;;;7.76;100.00
11114;BME280;5610;52.154;9.198;2023-12-20T02:06:50;100388.06;;;7.68;100.00
11114;BME280;5610;52.154;9.198;2023-12-20T02:09:38;100390.53;;;7.55;100.00
11114;BME280;5610;52.154;9.198;2023-12-20T02:12:23;100387.06;;;7.70;100.00
11114;BME280;5610;52.154;9.198;2023-12-20T02:15:10;100386.22;;;7.70;100.00
11114;BME280;5610;52.154;9.198;2023-12-20T02:17:55;100377.47;;;7.68;100.00
11114;BME280;5610;52.154;9.198;2023-12-20T02:20:40;100361.31;;;7.72;100.00
11114;BME280;5610;52.154;9.198;2023-12-20T02:23:27;100347.19;;;7.56;100.00
11114;BME280;5610;52.154;9.198;2023-12-20T02:26:12;100362.47;;;7.51;100.00
11114;BME280;5610;52.154;9.198;2023-12-20T02:28:58;100366.47;;;7.42;100.00
11114;BME280;5610;52.154;9.198;2023-12-20T02:31:43;100381.44;;;7.43;100.00
11114;BME280;5610;52.154;9.198;2023-12-20T02:34:29;100362.22;;;7.40;100.00
11114;BME280;5610;52.154;9.198;2023-12-20T02:37:14;100358.84;;;7.36;100.00
11114;BME280;5610;52.154;9.198;2023-12-20T02:40:01;100364.22;;;7.35;100.00
11114;BME280;5610;52.154;9.198;2023-12-20T02:42:48;100359.88;;;7.34;100.00
11114;BME280;5610;52.154;9.198;2023-12-20T02:45:33;100354.81;;;7.29;100.00
11114;BME280;5610;52.154;9.198;2023-12-20T02:48:18;100358.22;;;7.31;100.00
11114;BME280;5610;52.154;9.198;2023-12-20T02:51:03;100366.66;;;7.22;100.00
11114;BME280;5610;52.154;9.198;2023-12-20T02:53:49;100356.25;;;7.19;100.00
11114;BME280;5610;52.154;9.198;2023-12-20T02:56:35;100358.41;;;7.11;100.00
11114;BME280;5610;52.154;9.198;2023-12-20T02:59:21;100361.41;;;7.05;100.00
11114;BME280;5610;52.154;9.198;2023-12-20T03:02:06;100351.25;;;6.96;100.00
11114;BME280;5610;52.154;9.198;2023-12-20T03:04:51;100349.00;;;7.05;100.00
11114;BME280;5610;52.154;9.198;2023-12-20T03:07:36;100354.34;;;7.04;100.00
11114;BME280;5610;52.154;9.198;2023-12-20T03:10:21;100345.16;;;7.11;100.00
11114;BME280;5610;52.154;9.198;2023-12-20T03:13:08;100338.19;;;6.93;100.00
11114;BME280;5610;52.154;9.198;2023-12-20T03:15:53;100339.72;;;6.79;100.00
11114;BME280;5610;52.154;9.198;2023-12-20T03:18:39;100340.19;;;6.87;100.00
11114;BME280;5610;52.154;9.198;2023-12-20T03:21:24;100333.31;;;6.83;100.00
11114;BME280;5610;52.154;9.198;2023-12-20T03:24:09;100334.97;;;6.86;100.00
11114;BME280;5610;52.154;9.198;2023-12-20T03:26:54;100332.34;;;6.86;100.00
11114;BME280;5610;52.154;9.198;2023-12-20T03:29:40;100331.72;;;6.98;100.00
11114;BME280;5610;52.154;9.198;2023-12-20T03:32:26;100331.53;;;7.01;100.00
11114;BME280;5610;52.154;9.198;2023-12-20T03:35:11;100337.00;;;6.98;100.00
11114;BME280;5610;52.154;9.198;2023-12-20T03:37:56;100331.44;;;7.03;100.00
11114;BME280;5610;52.154;9.198;2023-12-20T03:40:43;100325.69;;;7.12;100.00
11114;BME280;5610;52.154;9.198;2023-12-20T03:43:29;100333.91;;;7.23;100.00
11114;BME280;5610;52.154;9.198;2023-12-20T03:46:15;100322.63;;;7.20;100.00
11114;BME280;5610;52.154;9.198;2023-12-20T03:49:00;100317.41;;;7.18;100.00
11114;BME280;5610;52.154;9.198;2023-12-20T03:51:45;100323.63;;;7.17;100.00
11114;BME280;5610;52.154;9.198;2023-12-20T03:54:30;100308.22;;;7.08;100.00
11114;BME280;5610;52.154;9.198;2023-12-20T03:57:15;100316.63;;;7.16;100.00
11114;BME280;5610;52.154;9.198;2023-12-20T04:00:01;100314.28;;;7.27;100.00
11114;BME280;5610;52.154;9.198;2023-12-20T04:02:57;100314.81;;;7.34;100.00
11114;BME280;5610;52.154;9.198;2023-12-20T04:05:42;100312.69;;;7.40;100.00
11114;BME280;5610;52.154;9.198;2023-12-20T04:08:27;100308.69;;;7.49;100.00
11114;BME280;5610;52.154;9.198;2023-12-20T04:11:13;100308.41;;;7.38;100.00
11114;BME280;5610;52.154;9.198;2023-12-20T04:13:58;100317.72;;;7.45;100.00
11114;BME280;5610;52.154;9.198;2023-12-20T04:16:43;100307.75;;;7.50;100.00
11114;BME280;5610;52.154;9.198;2023-12-20T04:19:30;100307.41;;;7.56;100.00
11114;BME280;5610;52.154;9.198;2023-12-20T04:22:15;100301.25;;;7.56;100.00
11114;BME280;5610;52.154;9.198;2023-12-20T04:25:00;100298.75;;;7.53;100.00
11114;BME280;5610;52.154;9.198;2023-12-20T04:27:45;100299.97;;;7.47;100.00
11114;BME280;5610;52.154;9.198;2023-12-20T04:30:31;100292.16;;;7.44;100.00
11114;BME280;5610;52.154;9.198;2023-12-20T04:33:16;100299.50;;;7.39;100.00
11114;BME280;5610;52.154;9.198;2023-12-20T04:36:03;100294.50;;;7.50;100.00
11114;BME280;5610;52.154;9.198;2023-12-20T04:38:48;100291.59;;;7.55;100.00
11114;BME280;5610;52.154;9.198;2023-12-20T04:41:34;100283.47;;;7.58;100.00
11114;BME280;5610;52.154;9.198;2023-12-20T04:44:19;100294.47;;;7.34;100.00
11114;BME280;5610;52.154;9.198;2023-12-20T04:47:04;100300.88;;;7.46;100.00
11114;BME280;5610;52.154;9.198;2023-12-20T04:49:49;100292.50;;;7.54;100.00
11114;BME280;5610;52.154;9.198;2023-12-20T04:52:36;100296.09;;;7.53;100.00
11114;BME280;5610;52.154;9.198;2023-12-20T04:55:21;100303.72;;;7.43;100.00
11114;BME280;5610;52.154;9.198;2023-12-20T04:58:06;100293.88;;;7.45;100.00
11114;BME280;5610;52.154;9.198;2023-12-20T05:00:52;100288.22;;;7.35;100.00
11114;BME280;5610;52.154;9.198;2023-12-20T05:03:37;100285.50;;;7.53;100.00
11114;BME280;5610;52.154;9.198;2023-12-20T05:06:22;100285.91;;;7.45;100.00
11114;BME280;5610;52.154;9.198;2023-12-20T05:09:10;100295.66;;;7.44;100.00
11114;BME280;5610;52.154;9.198;2023-12-20T05:11:55;100285.16;;;7.59;100.00
11114;BME280;5610;52.154;9.198;2023-12-20T05:14:40;100284.84;;;7.65;100.00
11114;BME280;5610;52.154;9.198;2023-12-20T05:17:26;100279.19;;;7.55;100.00
11114;BME280;5610;52.154;9.198;2023-12-20T05:20:11;100286.63;;;7.64;100.00
11114;BME280;5610;52.154;9.198;2023-12-20T05:22:56;100270.22;;;7.58;100.00
11114;BME280;5610;52.154;9.198;2023-12-20T05:25:43;100276.44;;;7.57;100.00
11114;BME280;5610;52.154;9.198;2023-12-20T05:28:28;100277.41;;;7.56;100.00
11114;BME280;5610;52.154;9.198;2023-12-20T05:31:14;100273.28;;;7.66;100.00
11114;BME280;5610;52.154;9.198;2023-12-20T05:33:59;100278.69;;;7.64;100.00
11114;BME280;5610;52.154;9.198;2023-12-20T05:36:44;100269.34;;;7.57;100.00
11114;BME280;5610;52.154;9.198;2023-12-20T05:39:29;100262.84;;;7.47;100.00
11114;BME280;5610;52.154;9.198;2023-12-20T05:42:16;100275.94;;;7.50;100.00
11114;BME280;5610;52.154;9.198;2023-12-20T05:45:01;100272.13;;;7.38;100.00
11114;BME280;5610;52.154;9.198;2023-12-20T05:47:46;100278.59;;;7.50;100.00
11114;BME280;5610;52.154;9.198;2023-12-20T05:50:31;100281.31;;;7.49;100.00
11114;BME280;5610;52.154;9.198;2023-12-20T05:53:16;100281.47;;;7.46;100.00
11114;BME280;5610;52.154;9.198;2023-12-20T05:56:01;100279.44;;;7.51;100.00
11114;BME280;5610;52.154;9.198;2023-12-20T05:58:48;100280.13;;;7.54;100.00
11114;BME280;5610;52.154;9.198;2023-12-20T06:01:33;100269.97;;;7.62;100.00
11114;BME280;5610;52.154;9.198;2023-12-20T06:04:19;100280.91;;;7.56;100.00
11114;BME280;5610;52.154;9.198;2023-12-20T06:07:04;100280.13;;;7.54;100.00
11114;BME280;5610;52.154;9.198;2023-12-20T06:09:49;100282.25;;;7.48;100.00
11114;BME280;5610;52.154;9.198;2023-12-20T06:12:34;100283.28;;;7.45;100.00
11114;BME280;5610;52.154;9.198;2023-12-20T06:15:21;100294.06;;;7.42;100.00
11114;BME280;5610;52.154;9.198;2023-12-20T06:18:07;100301.47;;;7.35;100.00
11114;BME280;5610;52.154;9.198;2023-12-20T06:20:52;100304.56;;;7.43;100.00
11114;BME280;5610;52.154;9.198;2023-12-20T06:23:37;100294.91;;;7.42;100.00
11114;BME280;5610;52.154;9.198;2023-12-20T06:26:23;100294.28;;;7.37;100.00
11114;BME280;5610;52.154;9.198;2023-12-20T06:29:08;100290.78;;;7.37;100.00
11114;BME280;5610;52.154;9.198;2023-12-20T06:31:55;100295.75;;;7.43;100.00
11114;BME280;5610;52.154;9.198;2023-12-20T06:34:40;100288.75;;;7.42;100.00
11114;BME280;5610;52.154;9.198;2023-12-20T06:37:25;100298.59;;;7.40;100.00
11114;BME280;5610;52.154;9.198;2023-12-20T06:40:11;100284.06;;;7.47;100.00
11114;BME280;5610;52.154;9.198;2023-12-20T06:42:56;100293.72;;;7.48;100.00
11114;BME280;5610;52.154;9.198;2023-12-20T06:45:41;100289.38;;;7.47;100.00
11114;BME280;5610;52.154;9.198;2023-12-20T06:48:28;100293.53;;;7.51;100.00
11114;BME280;5610;52.154;9.198;2023-12-20T06:51:15;100275.75;;;7.53;100.00
11114;BME280;5610;52.154;9.198;2023-12-20T06:54:00;100282.69;;;7.56;100.00
11114;BME280;5610;52.154;9.198;2023-12-20T06:56:46;100274.41;;;7.62;100.00
11114;BME280;5610;52.154;9.198;2023-12-20T06:59:32;100264.03;;;7.73;100.00
11114;BME280;5610;52.154;9.198;2023-12-20T07:02:17;100262.94;;;7.61;100.00
11114;BME280;5610;52.154;9.198;2023-12-20T07:05:04;100262.44;;;7.55;100.00
11114;BME280;5610;52.154;9.198;2023-12-20T07:07:50;100253.63;;;7.70;100.00
11114;BME280;5610;52.154;9.198;2023-12-20T07:10:35;100249.09;;;7.56;100.00
11114;BME280;5610;52.154;9.198;2023-12-20T07:13:20;100249.94;;;7.41;100.00
11114;BME280;5610;52.154;9.198;2023-12-20T07:16:06;100260.59;;;7.39;100.00
11114;BME280;5610;52.154;9.198;2023-12-20T07:18:52;100269.16;;;7.44;100.00
11114;BME280;5610;52.154;9.198;2023-12-20T07:21:39;100261.31;;;7.43;100.00
11114;BME280;5610;52.154;9.198;2023-12-20T07:24:24;100270.53;;;7.52;100.00
11114;BME280;5610;52.154;9.198;2023-12-20T07:27:09;100279.34;;;7.52;100.00
11114;BME280;5610;52.154;9.198;2023-12-20T07:29:54;100265.84;;;7.57;100.00
11114;BME280;5610;52.154;9.198;2023-12-20T07:32:39;100258.50;;;7.62;100.00
11114;BME280;5610;52.154;9.198;2023-12-20T07:35:24;100266.00;;;7.54;100.00
11114;BME280;5610;52.154;9.198;2023-12-20T07:38:11;100249.94;;;7.41;100.00
11114;BME280;5610;52.154;9.198;2023-12-20T07:40:57;100256.09;;;7.57;100.00
11114;BME280;5610;52.154;9.198;2023-12-20T07:43:42;100262.16;;;7.59;100.00
11114;BME280;5610;52.154;9.198;2023-12-20T07:46:27;100251.97;;;7.67;100.00
11114;BME280;5610;52.154;9.198;2023-12-20T07:49:13;100257.56;;;7.47;100.00
11114;BME280;5610;52.154;9.198;2023-12-20T07:51:58;100256.00;;;7.59;100.00
11114;BME280;5610;52.154;9.198;2023-12-20T07:54:45;100258.84;;;7.56;100.00
11114;BME280;5610;52.154;9.198;2023-12-20T07:57:30;100255.34;;;7.55;100.00
11114;BME280;5610;52.154;9.198;2023-12-20T08:00:16;100254.28;;;7.74;100.00
11114;BME280;5610;52.154;9.198;2023-12-20T08:03:02;100259.94;;;7.67;100.00
11114;BME280;5610;52.154;9.198;2023-12-20T08:05:47;100258.66;;;7.75;100.00
11114;BME280;5610;52.154;9.198;2023-12-20T08:08:33;100251.06;;;7.84;100.00
11114;BME280;5610;52.154;9.198;2023-12-20T08:11:19;100257.31;;;7.83;100.00
11114;BME280;5610;52.154;9.198;2023-12-20T08:14:05;100266.19;;;7.66;100.00
11114;BME280;5610;52.154;9.198;2023-12-20T08:16:50;100267.47;;;7.75;100.00
11114;BME280;5610;52.154;9.198;2023-12-20T08:19:35;100266.28;;;7.65;100.00
11114;BME280;5610;52.154;9.198;2023-12-20T08:22:20;100262.06;;;7.61;100.00
11114;BME280;5610;52.154;9.198;2023-12-20T08:25:06;100242.69;;;7.76;100.00
11114;BME280;5610;52.154;9.198;2023-12-20T08:27:53;100248.41;;;7.68;100.00
11114;BME280;5610;52.154;9.198;2023-12-20T08:30:39;100253.78;;;7.67;100.00
11114;BME280;5610;52.154;9.198;2023-12-20T08:33:24;100240.88;;;7.77;100.00
11114;BME280;5610;52.154;9.198;2023-12-20T08:36:10;100246.84;;;7.80;100.00
11114;BME280;5610;52.154;9.198;2023-12-20T08:38:55;100248.19;;;8.03;100.00
11114;BME280;5610;52.154;9.198;2023-12-20T08:41:41;100229.31;;;8.23;100.00
11114;BME280;5610;52.154;9.198;2023-12-20T08:44:27;100225.16;;;8.49;100.00
11114;BME280;5610;52.154;9.198;2023-12-20T08:47:13;100230.75;;;8.45;100.00
11114;BME280;5610;52.154;9.198;2023-12-20T08:50:00;100219.41;;;8.27;100.00
11114;BME280;5610;52.154;9.198;2023-12-20T08:52:45;100227.16;;;8.00;100.00
11114;BME280;5610;52.154;9.198;2023-12-20T08:55:31;100217.28;;;8.02;100.00
11114;BME280;5610;52.154;9.198;2023-12-20T08:58:16;100219.53;;;7.94;100.00
11114;BME280;5610;52.154;9.198;2023-12-20T09:01:03;100220.41;;;7.94;100.00
11114;BME280;5610;52.154;9.198;2023-12-20T09:03:48;100213.56;;;7.90;100.00
11114;BME280;5610;52.154;9.198;2023-12-20T09:06:33;100216.44;;;8.02;100.00
11114;BME280;5610;52.154;9.198;2023-12-20T09:09:18;100226.56;;;7.95;100.00
11114;BME280;5610;52.154;9.198;2023-12-20T09:12:04;100197.53;;;8.08;100.00
11114;BME280;5610;52.154;9.198;2023-12-20T09:14:50;100196.47;;;8.10;100.00
11114;BME280;5610;52.154;9.198;2023-12-20T09:17:37;100191.38;;;8.07;100.00
11114;BME280;5610;52.154;9.198;2023-12-20T09:20:22;100192.97;;;8.10;100.00
11114;BME280;5610;52.154;9.198;2023-12-20T09:23:08;100184.38;;;8.20;100.00
11114;BME280;5610;52.154;9.198;2023-12-20T09:25:53;100180.44;;;8.27;100.00
11114;BME280;5610;52.154;9.198;2023-12-20T09:28:39;100185.44;;;8.18;100.00
11114;BME280;5610;52.154;9.198;2023-12-20T09:31:24;100190.75;;;8.18;100.00
11114;BME280;5610;52.154;9.198;2023-12-20T09:34:10;100185.31;;;8.05;100.00
11114;BME280;5610;52.154;9.198;2023-12-20T09:36:56;100175.38;;;7.93;100.00
11114;BME280;5610;52.154;9.198;2023-12-20T09:39:41;100177.19;;;7.92;100.00
11114;BME280;5610;52.154;9.198;2023-12-20T09:42:36;100185.78;;;7.66;100.00
11114;BME280;5610;52.154;9.198;2023-12-20T09:45:23;100177.97;;;7.79;100.00
11114;BME280;5610;52.154;9.198;2023-12-20T09:48:10;100181.66;;;7.92;100.00
11114;BME280;5610;52.154;9.198;2023-12-20T09:50:57;100171.25;;;8.03;100.00
11114;BME280;5610;52.154;9.198;2023-12-20T09:53:43;100169.78;;;8.13;100.00
11114;BME280;5610;52.154;9.198;2023-12-20T09:56:29;100164.50;;;8.27;100.00
11114;BME280;5610;52.154;9.198;2023-12-20T09:59:14;100177.28;;;8.21;100.00
11114;BME280;5610;52.154;9.198;2023-12-20T10:02:01;100184.75;;;8.44;100.00
11114;BME280;5610;52.154;9.198;2023-12-20T10:04:47;100186.34;;;8.33;100.00
11114;BME280;5610;52.154;9.198;2023-12-20T10:07:34;100182.88;;;8.31;100.00
11114;BME280;5610;52.154;9.198;2023-12-20T10:10:20;100180.44;;;8.27;100.00
11114;BME280;5610;52.154;9.198;2023-12-20T10:13:06;100186.75;;;8.41;100.00
11114;BME280;5610;52.154;9.198;2023-12-20T10:15:52;100168.75;;;8.30;100.00
11114;BME280;5610;52.154;9.198;2023-12-20T10:18:39;100173.66;;;8.38;100.00
11114;BME280;5610;52.154;9.198;2023-12-20T10:21:25;100174.81;;;8.18;100.00
11114;BME280;5610;52.154;9.198;2023-12-20T10:24:16;100167.06;;;8.29;100.00
11114;BME280;5610;52.154;9.198;2023-12-20T10:27:02;100172.72;;;8.23;100.00
11114;BME280;5610;52.154;9.198;2023-12-20T10:29:49;100164.00;;;8.21;100.00
11114;BME280;5610;52.154;9.198;2023-12-20T10:32:34;100157.16;;;8.17;100.00
11114;BME280;5610;52.154;9.198;2023-12-20T10:35:19;100144.84;;;8.16;100.00
11114;BME280;5610;52.154;9.198;2023-12-20T10:38:06;100144.19;;;8.12;100.00
11114;BME280;5610;52.154;9.198;2023-12-20T10:40:55;100141.34;;;8.15;100.00
11114;BME280;5610;52.154;9.198;2023-12-20T10:43:42;100138.13;;;8.24;100.00
11114;BME280;5610;52.154;9.198;2023-12-20T10:46:28;100138.22;;;8.23;100.00
11114;BME280;5610;52.154;9.198;2023-12-20T10:49:14;100137.38;;;8.22;100.00
11114;BME280;5610;52.154;9.198;2023-12-20T10:52:02;100138.13;;;8.24;100.00
11114;BME280;5610;52.154;9.198;2023-12-20T10:54:48;100128.06;;;8.15;100.00
11114;BME280;5610;52.154;9.198;2023-12-20T10:57:36;100139.38;;;8.19;100.00
11114;BME280;5610;52.154;9.198;2023-12-20T11:00:22;100126.13;;;8.03;100.00
11114;BME280;5610;52.154;9.198;2023-12-20T11:03:09;100128.72;;;8.05;100.00
11114;BME280;5610;52.154;9.198;2023-12-20T11:06:00;100123.31;;;8.06;100.00
11114;BME280;5610;52.154;9.198;2023-12-20T11:08:52;100128.88;;;8.02;100.00
11114;BME280;5610;52.154;9.198;2023-12-20T11:11:52;100135.03;;;8.18;100.00
11114;BME280;5610;52.154;9.198;2023-12-20T11:14:47;100115.38;;;8.20;100.00
11114;BME280;5610;52.154;9.198;2023-12-20T11:17:33;100131.78;;;8.13;100.00
11114;BME280;5610;52.154;9.198;2023-12-20T11:20:18;100123.16;;;8.23;100.00
11114;BME280;5610;52.154;9.198;2023-12-20T11:23:03;100115.13;;;8.25;100.00
11114;BME280;5610;52.154;9.198;2023-12-20T11:25:52;100120.81;;;8.33;100.00
11114;BME280;5610;52.154;9.198;2023-12-20T11:28:38;100109.66;;;8.42;100.00
11114;BME280;5610;52.154;9.198;2023-12-20T11:31:26;100122.31;;;8.67;100.00
11114;BME280;5610;52.154;9.198;2023-12-20T11:34:14;100117.06;;;8.66;100.00
11114;BME280;5610;52.154;9.198;2023-12-20T11:37:02;100133.81;;;8.38;100.00
11114;BME280;5610;52.154;9.198;2023-12-20T11:39:54;100128.16;;;8.44;100.00
11114;BME280;5610;52.154;9.198;2023-12-20T11:42:40;100127.50;;;8.40;100.00
11114;BME280;5610;52.154;9.198;2023-12-20T11:45:25;100115.94;;;8.41;100.00
11114;BME280;5610;52.154;9.198;2023-12-20T11:48:13;100121.59;;;8.35;100.00
11114;BME280;5610;52.154;9.198;2023-12-20T11:50:59;100108.50;;;8.32;100.00
11114;BME280;5610;52.154;9.198;2023-12-20T11:53:44;100138.28;;;8.37;100.00
11114;BME280;5610;52.154;9.198;2023-12-20T11:56:29;100115.72;;;8.44;100.00
11114;BME280;5610;52.154;9.198;2023-12-20T11:59:15;100109.25;;;8.34;100.00
11114;BME280;5610;52.154;9.198;2023-12-20T12:02:00;100092.78;;;8.43;100.00
11114;BME280;5610;52.154;9.198;2023-12-20T12:04:48;100084.81;;;8.43;100.00
11114;BME280;5610;52.154;9.198;2023-12-20T12:07:34;100079.34;;;8.46;100.00
11114;BME280;5610;52.154;9.198;2023-12-20T12:10:20;100091.56;;;8.49;100.00
11114;BME280;5610;52.154;9.198;2023-12-20T12:13:06;100075.34;;;8.53;100.00
11114;BME280;5610;52.154;9.198;2023-12-20T12:15:51;100080.25;;;8.60;100.00
11114;BME280;5610;52.154;9.198;2023-12-20T12:18:37;100082.38;;;8.55;100.00
11114;BME280;5610;52.154;9.198;2023-12-20T12:21:23;100089.97;;;8.46;100.00
11114;BME280;5610;52.154;9.198;2023-12-20T12:24:09;100117.19;;;8.20;100.00
11114;BME280;5610;52.154;9.198;2023-12-20T12:26:57;100138.47;;;7.74;100.00
11114;BME280;5610;52.154;9.198;2023-12-20T12:30:00;100144.31;;;7.49;100.00
11114;BME280;5610;52.154;9.198;2023-12-20T12:32:46;100141.84;;;6.99;100.00
11114;BME280;5610;52.154;9.198;2023-12-20T12:35:31;100136.75;;;6.63;100.00
11114;BME280;5610;52.154;9.198;2023-12-20T12:38:20;100136.56;;;6.66;100.00
11114;BME280;5610;52.154;9.198;2023-12-20T12:41:05;100132.53;;;6.58;100.00
11114;BME280;5610;52.154;9.198;2023-12-20T12:43:51;100129.84;;;6.43;100.00
11114;BME280;5610;52.154;9.198;2023-12-20T12:46:36;100121.75;;;6.46;100.00
11114;BME280;5610;52.154;9.198;2023-12-20T12:49:22;100133.56;;;6.56;100.00
11114;BME280;5610;52.154;9.198;2023-12-20T12:52:07;100125.78;;;6.53;100.00
11114;BME280;5610;52.154;9.198;2023-12-20T12:54:54;100109.41;;;6.62;100.00
11114;BME280;5610;52.154;9.198;2023-12-20T12:57:39;100107.03;;;6.73;100.00
11114;BME280;5610;52.154;9.198;2023-12-20T13:00:25;100107.75;;;6.77;100.00
11114;BME280;5610;52.154;9.198;2023-12-20T13:03:10;100107.03;;;6.73;100.00
11114;BME280;5610;52.154;9.198;2023-12-20T13:05:55;100099.91;;;6.91;100.00
11114;BME280;5610;52.154;9.198;2023-12-20T13:08:41;100088.69;;;7.02;100.00
11114;BME280;5610;52.154;9.198;2023-12-20T13:11:27;100091.84;;;7.08;100.00
11114;BME280;5610;52.154;9.198;2023-12-20T13:14:12;100087.91;;;7.15;100.00
11114;BME280;5610;52.154;9.198;2023-12-20T13:16:59;100095.19;;;7.12;100.00
11114;BME280;5610;52.154;9.198;2023-12-20T13:19:44;100101.16;;;7.15;100.00
11114;BME280;5610;52.154;9.198;2023-12-20T13:22:31;100088.59;;;7.03;100.00
11114;BME280;5610;52.154;9.198;2023-12-20T13:25:16;100100.84;;;7.06;100.00
11114;BME280;5610;52.154;9.198;2023-12-20T13:28:04;100085.94;;;7.03;100.00
11114;BME280;5610;52.154;9.198;2023-12-20T13:30:49;100085.88;;;7.05;100.00
11114;BME280;5610;52.154;9.198;2023-12-20T13:33:34;100077.00;;;7.06;100.00
11114;BME280;5610;52.154;9.198;2023-12-20T13:36:20;100079.13;;;6.99;100.00
11114;BME280;5610;52.154;9.198;2023-12-20T13:39:06;100071.09;;;7.01;100.00
11114;BME280;5610;52.154;9.198;2023-12-20T13:41:51;100063.34;;;6.98;100.00
11114;BME280;5610;52.154;9.198;2023-12-20T13:44:38;100070.91;;;7.04;100.00
11114;BME280;5610;52.154;9.198;2023-12-20T13:47:23;100068.34;;;7.02;100.00
11114;BME280;5610;52.154;9.198;2023-12-20T13:50:09;100071.84;;;7.19;100.00
11114;BME280;5610;52.154;9.198;2023-12-20T13:52:54;100067.03;;;7.25;100.00
11114;BME280;5610;52.154;9.198;2023-12-20T13:55:39;100067.13;;;7.24;100.00
11114;BME280;5610;52.154;9.198;2023-12-20T13:58:25;100064.50;;;7.24;100.00
11114;BME280;5610;52.154;9.198;2023-12-20T14:01:12;100059.03;;;7.27;100.00
11114;BME280;5610;52.154;9.198;2023-12-20T14:03:57;100059.03;;;7.27;100.00
11114;BME280;5610;52.154;9.198;2023-12-20T14:06:44;100068.09;;;7.23;100.00
11114;BME280;5610;52.154;9.198;2023-12-20T14:09:29;100067.03;;;7.25;100.00
11114;BME280;5610;52.154;9.198;2023-12-20T14:12:14;100062.97;;;7.20;100.00
11114;BME280;5610;52.154;9.198;2023-12-20T14:14:59;100069.25;;;7.33;100.00
11114;BME280;5610;52.154;9.198;2023-12-20T14:17:47;100068.78;;;7.26;100.00
11114;BME280;5610;52.154;9.198;2023-12-20T14:20:33;100069.13;;;7.20;100.00
11114;BME280;5610;52.154;9.198;2023-12-20T14:23:19;100071.50;;;7.25;100.00
11114;BME280;5610;52.154;9.198;2023-12-20T14:26:04;100061.59;;;7.28;100.00
11114;BME280;5610;52.154;9.198;2023-12-20T14:28:49;100075.34;;;7.35;100.00
11114;BME280;5610;52.154;9.198;2023-12-20T14:31:34;100077.22;;;7.33;100.00
11114;BME280;5610;52.154;9.198;2023-12-20T14:34:22;100072.84;;;7.48;100.00
11114;BME280;5610;52.154;9.198;2023-12-20T14:37:08;100087.41;;;7.40;100.00
11114;BME280;5610;52.154;9.198;2023-12-20T14:39:53;100078.50;;;7.41;100.00